sensor_id;sensor_type;location;lat;lon;timestamp;P1;durP1;ratioP1;P2;durP2;ratioP2
1811;SDS011;904;47.814;11.134;2023-07-16T00:01:01;6.43;;;4.37;;
1811;SDS011;904;47.814;11.134;2023-07-16T00:03:28;6.40;;;4.47;;
1811;SDS011;904;47.814;11.134;2023-07-16T00:05:56;6.93;;;4.37;;
1811;SDS011;904;47.814;11.134;2023-07-16T00:08:23;6.33;;;4.43;;
1811;SDS011;904;47.814;11.134;2023-07-16T00:10:50;8.50;;;4.60;;
1811;SDS011;904;47.814;11.134;2023-07-16T00:13:17;6.23;;;3.97;;
1811;SDS011;904;47.814;11.134;2023-07-16T00:15:44;5.80;;;4.83;;
1811;SDS011;904;47.814;11.134;2023-07-16T00:18:11;7.63;;;4.63;;
1811;SDS011;904;47.814;11.134;2023-07-16T00:20:38;6.53;;;4.93;;
1811;SDS011;904;47.814;11.134;2023-07-16T00:23:06;7.10;;;4.93;;
1811;SDS011;904;47.814;11.134;2023-07-16T00:25:33;6.43;;;4.40;;
1811;SDS011;904;47.814;11.134;2023-07-16T00:28:01;11.10;;;5.00;;
1811;SDS011;904;47.814;11.134;2023-07-16T00:30:28;5.93;;;5.27;;
1811;SDS011;904;47.814;11.134;2023-07-16T00:32:55;5.83;;;4.43;;
1811;SDS011;904;47.814;11.134;2023-07-16T00:35:22;6.37;;;4.57;;
1811;SDS011;904;47.814;11.134;2023-07-16T00:37:49;8.37;;;5.23;;
1811;SDS011;904;47.814;11.134;2023-07-16T00:40:18;9.33;;;5.20;;
1811;SDS011;904;47.814;11.134;2023-07-16T00:42:45;8.10;;;5.10;;
1811;SDS011;904;47.814;11.134;2023-07-16T00:45:12;7.20;;;5.17;;
1811;SDS011;904;47.814;11.134;2023-07-16T00:47:40;6.10;;;4.90;;
1811;SDS011;904;47.814;11.134;2023-07-16T00:50:08;8.13;;;4.90;;
1811;SDS011;904;47.814;11.134;2023-07-16T00:52:36;5.70;;;4.47;;
1811;SDS011;904;47.814;11.134;2023-07-16T00:55:03;6.33;;;4.70;;
1811;SDS011;904;47.814;11.134;2023-07-16T00:57:33;7.80;;;4.70;;
1811;SDS011;904;47.814;11.134;2023-07-16T01:00:00;8.07;;;4.77;;
1811;SDS011;904;47.814;11.134;2023-07-16T01:02:27;9.30;;;5.50;;
1811;SDS011;904;47.814;11.134;2023-07-16T01:04:54;4.53;;;4.03;;
1811;SDS011;904;47.814;11.134;2023-07-16T01:07:21;7.40;;;6.07;;
1811;SDS011;904;47.814;11.134;2023-07-16T01:09:51;6.20;;;4.53;;
1811;SDS011;904;47.814;11.134;2023-07-16T01:12:25;6.73;;;4.70;;
1811;SDS011;904;47.814;11.134;2023-07-16T01:14:55;5.37;;;4.60;;
1811;SDS011;904;47.814;11.134;2023-07-16T01:17:24;4.50;;;3.73;;
1811;SDS011;904;47.814;11.134;2023-07-16T01:19:51;6.70;;;4.60;;
1811;SDS011;904;47.814;11.134;2023-07-16T01:22:29;6.53;;;4.80;;
1811;SDS011;904;47.814;11.134;2023-07-16T01:25:14;6.23;;;4.73;;
1811;SDS011;904;47.814;11.134;2023-07-16T01:28:11;6.03;;;4.10;;
1811;SDS011;904;47.814;11.134;2023-07-16T01:30:54;5.90;;;4.87;;
1811;SDS011;904;47.814;11.134;2023-07-16T01:33:24;5.70;;;4.73;;
1811;SDS011;904;47.814;11.134;2023-07-16T01:35:52;6.63;;;5.03;;
1811;SDS011;904;47.814;11.134;2023-07-16T01:38:20;5.40;;;4.50;;
1811;SDS011;904;47.814;11.134;2023-07-16T01:40:48;5.53;;;4.90;;
1811;SDS011;904;47.814;11.134;2023-07-16T01:43:17;5.43;;;4.30;;
1811;SDS011;904;47.814;11.134;2023-07-16T01:45:50;5.93;;;5.30;;
1811;SDS011;904;47.814;11.134;2023-07-16T01:48:24;6.43;;;5.40;;
1811;SDS011;904;47.814;11.134;2023-07-16T01:50:55;5.93;;;4.43;;
1811;SDS011;904;47.814;11.134;2023-07-16T01:53:22;5.90;;;5.20;;
1811;SDS011;904;47.814;11.134;2023-07-16T01:55:49;7.20;;;4.90;;
1811;SDS011;904;47.814;11.134;2023-07-16T01:58:16;5.83;;;4.50;;
1811;SDS011;904;47.814;11.134;2023-07-16T02:00:43;7.60;;;5.00;;
1811;SDS011;904;47.814;11.134;2023-07-16T02:03:10;7.53;;;4.50;;
1811;SDS011;904;47.814;11.134;2023-07-16T02:05:39;6.63;;;4.63;;
1811;SDS011;904;47.814;11.134;2023-07-16T02:08:11;6.60;;;4.60;;
1811;SDS011;904;47.814;11.134;2023-07-16T02:10:38;7.63;;;4.90;;
1811;SDS011;904;47.814;11.134;2023-07-16T02:13:05;6.73;;;4.67;;
1811;SDS011;904;47.814;11.134;2023-07-16T02:15:32;9.03;;;4.60;;
1811;SDS011;904;47.814;11.134;2023-07-16T02:17:59;6.53;;;4.57;;
1811;SDS011;904;47.814;11.134;2023-07-16T02:20:26;6.70;;;4.47;;
1811;SDS011;904;47.814;11.134;2023-07-16T02:22:54;5.73;;;4.20;;
1811;SDS011;904;47.814;11.134;2023-07-16T02:25:21;7.00;;;4.90;;
1811;SDS011;904;47.814;11.134;2023-07-16T02:27:48;9.17;;;4.60;;
1811;SDS011;904;47.814;11.134;2023-07-16T02:30:15;6.73;;;4.70;;
1811;SDS011;904;47.814;11.134;2023-07-16T02:32:42;5.87;;;4.37;;
1811;SDS011;904;47.814;11.134;2023-07-16T02:35:10;8.50;;;4.60;;
1811;SDS011;904;47.814;11.134;2023-07-16T02:37:37;5.77;;;4.70;;
1811;SDS011;904;47.814;11.134;2023-07-16T02:40:06;6.10;;;5.07;;
1811;SDS011;904;47.814;11.134;2023-07-16T02:42:34;5.40;;;4.37;;
1811;SDS011;904;47.814;11.134;2023-07-16T02:45:01;6.87;;;5.07;;
1811;SDS011;904;47.814;11.134;2023-07-16T02:47:28;6.87;;;5.50;;
1811;SDS011;904;47.814;11.134;2023-07-16T02:49:55;7.40;;;5.10;;
1811;SDS011;904;47.814;11.134;2023-07-16T02:52:26;9.87;;;5.00;;
1811;SDS011;904;47.814;11.134;2023-07-16T02:54:53;6.40;;;5.10;;
1811;SDS011;904;47.814;11.134;2023-07-16T02:57:22;5.60;;;4.77;;
1811;SDS011;904;47.814;11.134;2023-07-16T02:59:49;9.83;;;4.70;;
1811;SDS011;904;47.814;11.134;2023-07-16T03:02:16;7.80;;;5.03;;
1811;SDS011;904;47.814;11.134;2023-07-16T03:04:43;8.20;;;4.70;;
1811;SDS011;904;47.814;11.134;2023-07-16T03:07:10;4.90;;;4.13;;
1811;SDS011;904;47.814;11.134;2023-07-16T03:09:37;6.90;;;5.20;;
1811;SDS011;904;47.814;11.134;2023-07-16T03:12:05;7.27;;;5.60;;
1811;SDS011;904;47.814;11.134;2023-07-16T03:14:34;7.57;;;4.57;;
1811;SDS011;904;47.814;11.134;2023-07-16T03:17:01;6.60;;;4.43;;
1811;SDS011;904;47.814;11.134;2023-07-16T03:19:28;7.37;;;4.67;;
1811;SDS011;904;47.814;11.134;2023-07-16T03:21:55;7.70;;;5.53;;
1811;SDS011;904;47.814;11.134;2023-07-16T03:24:22;8.33;;;4.57;;
1811;SDS011;904;47.814;11.134;2023-07-16T03:26:49;11.63;;;6.10;;
1811;SDS011;904;47.814;11.134;2023-07-16T03:29:16;9.73;;;5.73;;
1811;SDS011;904;47.814;11.134;2023-07-16T03:31:44;10.03;;;6.03;;
1811;SDS011;904;47.814;11.134;2023-07-16T03:34:12;9.53;;;5.83;;
1811;SDS011;904;47.814;11.134;2023-07-16T03:36:39;6.03;;;5.17;;
1811;SDS011;904;47.814;11.134;2023-07-16T03:39:06;9.63;;;5.30;;
1811;SDS011;904;47.814;11.134;2023-07-16T03:41:33;8.43;;;5.67;;
1811;SDS011;904;47.814;11.134;2023-07-16T03:44:00;7.37;;;5.17;;
1811;SDS011;904;47.814;11.134;2023-07-16T03:46:27;9.60;;;5.00;;
1811;SDS011;904;47.814;11.134;2023-07-16T03:48:55;6.33;;;5.10;;
1811;SDS011;904;47.814;11.134;2023-07-16T03:51:22;6.10;;;5.40;;
1811;SDS011;904;47.814;11.134;2023-07-16T03:53:49;11.90;;;5.93;;
1811;SDS011;904;47.814;11.134;2023-07-16T03:56:16;7.00;;;5.20;;
1811;SDS011;904;47.814;11.134;2023-07-16T03:58:42;6.47;;;4.60;;
1811;SDS011;904;47.814;11.134;2023-07-16T04:01:09;7.43;;;5.73;;
1811;SDS011;904;47.814;11.134;2023-07-16T04:03:36;8.73;;;4.90;;
1811;SDS011;904;47.814;11.134;2023-07-16T04:06:05;6.77;;;4.27;;
1811;SDS011;904;47.814;11.134;2023-07-16T04:08:35;4.20;;;2.90;;
1811;SDS011;904;47.814;11.134;2023-07-16T04:11:12;6.07;;;2.67;;
1811;SDS011;904;47.814;11.134;2023-07-16T04:13:39;4.67;;;2.27;;
1811;SDS011;904;47.814;11.134;2023-07-16T04:16:06;4.80;;;3.17;;
1811;SDS011;904;47.814;11.134;2023-07-16T04:18:33;3.53;;;1.90;;
1811;SDS011;904;47.814;11.134;2023-07-16T04:20:59;2.90;;;1.80;;
1811;SDS011;904;47.814;11.134;2023-07-16T04:23:28;2.57;;;1.57;;
1811;SDS011;904;47.814;11.134;2023-07-16T04:25:55;3.00;;;1.80;;
1811;SDS011;904;47.814;11.134;2023-07-16T04:28:22;3.00;;;1.47;;
1811;SDS011;904;47.814;11.134;2023-07-16T04:30:48;3.97;;;2.07;;
1811;SDS011;904;47.814;11.134;2023-07-16T04:33:15;3.60;;;1.87;;
1811;SDS011;904;47.814;11.134;2023-07-16T04:35:44;3.57;;;1.50;;
1811;SDS011;904;47.814;11.134;2023-07-16T04:38:11;3.37;;;1.80;;
1811;SDS011;904;47.814;11.134;2023-07-16T04:40:41;4.03;;;2.00;;
1811;SDS011;904;47.814;11.134;2023-07-16T04:43:08;2.80;;;1.60;;
1811;SDS011;904;47.814;11.134;2023-07-16T04:45:35;2.53;;;2.03;;
1811;SDS011;904;47.814;11.134;2023-07-16T04:48:04;3.40;;;1.73;;
1811;SDS011;904;47.814;11.134;2023-07-16T04:50:31;2.10;;;1.20;;
1811;SDS011;904;47.814;11.134;2023-07-16T04:52:58;3.77;;;2.27;;
1811;SDS011;904;47.814;11.134;2023-07-16T04:55:25;3.30;;;2.03;;
1811;SDS011;904;47.814;11.134;2023-07-16T04:57:53;3.60;;;1.53;;
1811;SDS011;904;47.814;11.134;2023-07-16T05:00:28;9.20;;;1.80;;
1811;SDS011;904;47.814;11.134;2023-07-16T05:02:55;3.60;;;2.00;;
1811;SDS011;904;47.814;11.134;2023-07-16T05:05:21;3.23;;;2.00;;
1811;SDS011;904;47.814;11.134;2023-07-16T05:07:48;2.93;;;1.80;;
1811;SDS011;904;47.814;11.134;2023-07-16T05:10:15;3.47;;;1.43;;
1811;SDS011;904;47.814;11.134;2023-07-16T05:12:42;2.47;;;1.67;;
1811;SDS011;904;47.814;11.134;2023-07-16T05:15:11;5.00;;;2.70;;
1811;SDS011;904;47.814;11.134;2023-07-16T05:17:37;3.60;;;2.00;;
1811;SDS011;904;47.814;11.134;2023-07-16T05:20:05;2.63;;;1.60;;
1811;SDS011;904;47.814;11.134;2023-07-16T05:22:34;5.47;;;2.60;;
1811;SDS011;904;47.814;11.134;2023-07-16T05:25:01;4.27;;;2.57;;
1811;SDS011;904;47.814;11.134;2023-07-16T05:27:28;2.93;;;1.47;;
1811;SDS011;904;47.814;11.134;2023-07-16T05:29:55;3.30;;;1.93;;
1811;SDS011;904;47.814;11.134;2023-07-16T05:32:23;2.50;;;1.77;;
1811;SDS011;904;47.814;11.134;2023-07-16T05:34:50;3.73;;;1.70;;
1811;SDS011;904;47.814;11.134;2023-07-16T05:37:17;2.90;;;1.80;;
1811;SDS011;904;47.814;11.134;2023-07-16T05:39:44;3.47;;;1.80;;
1811;SDS011;904;47.814;11.134;2023-07-16T05:42:11;3.80;;;1.63;;
1811;SDS011;904;47.814;11.134;2023-07-16T05:44:38;2.60;;;1.43;;
1811;SDS011;904;47.814;11.134;2023-07-16T05:47:05;4.20;;;2.10;;
1811;SDS011;904;47.814;11.134;2023-07-16T05:49:34;3.63;;;2.43;;
1811;SDS011;904;47.814;11.134;2023-07-16T05:52:01;3.23;;;2.10;;
1811;SDS011;904;47.814;11.134;2023-07-16T05:54:28;4.50;;;2.23;;
1811;SDS011;904;47.814;11.134;2023-07-16T05:56:56;3.80;;;2.03;;
1811;SDS011;904;47.814;11.134;2023-07-16T05:59:23;3.97;;;2.27;;
1811;SDS011;904;47.814;11.134;2023-07-16T06:01:50;4.50;;;1.77;;
1811;SDS011;904;47.814;11.134;2023-07-16T06:04:17;3.27;;;1.90;;
1811;SDS011;904;47.814;11.134;2023-07-16T06:06:45;2.60;;;1.50;;
1811;SDS011;904;47.814;11.134;2023-07-16T06:09:12;2.80;;;1.70;;
1811;SDS011;904;47.814;11.134;2023-07-16T06:11:39;4.73;;;1.97;;
1811;SDS011;904;47.814;11.134;2023-07-16T06:14:06;4.87;;;1.77;;
1811;SDS011;904;47.814;11.134;2023-07-16T06:16:33;3.30;;;1.87;;
1811;SDS011;904;47.814;11.134;2023-07-16T06:18:59;3.00;;;1.57;;
1811;SDS011;904;47.814;11.134;2023-07-16T06:21:26;3.70;;;1.47;;
1811;SDS011;904;47.814;11.134;2023-07-16T06:23:55;3.93;;;1.73;;
1811;SDS011;904;47.814;11.134;2023-07-16T06:26:21;4.00;;;2.10;;
1811;SDS011;904;47.814;11.134;2023-07-16T06:28:48;2.57;;;1.53;;
1811;SDS011;904;47.814;11.134;2023-07-16T06:31:15;2.60;;;1.47;;
1811;SDS011;904;47.814;11.134;2023-07-16T06:33:42;3.10;;;1.80;;
1811;SDS011;904;47.814;11.134;2023-07-16T06:36:11;4.70;;;1.80;;
1811;SDS011;904;47.814;11.134;2023-07-16T06:38:38;3.23;;;2.20;;
1811;SDS011;904;47.814;11.134;2023-07-16T06:41:06;5.17;;;1.50;;
1811;SDS011;904;47.814;11.134;2023-07-16T06:43:33;3.70;;;1.77;;
1811;SDS011;904;47.814;11.134;2023-07-16T06:46:00;2.57;;;1.27;;
1811;SDS011;904;47.814;11.134;2023-07-16T06:48:28;3.17;;;1.50;;
1811;SDS011;904;47.814;11.134;2023-07-16T06:50:55;3.43;;;1.50;;
1811;SDS011;904;47.814;11.134;2023-07-16T06:53:22;2.37;;;1.33;;
1811;SDS011;904;47.814;11.134;2023-07-16T06:55:49;2.30;;;1.30;;
1811;SDS011;904;47.814;11.134;2023-07-16T06:58:17;3.67;;;1.47;;
1811;SDS011;904;47.814;11.134;2023-07-16T07:00:44;3.30;;;1.70;;
1811;SDS011;904;47.814;11.134;2023-07-16T07:03:11;5.70;;;1.40;;
1811;SDS011;904;47.814;11.134;2023-07-16T07:05:40;6.03;;;1.97;;
1811;SDS011;904;47.814;11.134;2023-07-16T07:08:07;3.53;;;1.63;;
1811;SDS011;904;47.814;11.134;2023-07-16T07:10:34;2.63;;;1.40;;
1811;SDS011;904;47.814;11.134;2023-07-16T07:13:03;2.97;;;1.40;;
1811;SDS011;904;47.814;11.134;2023-07-16T07:15:31;2.43;;;1.50;;
1811;SDS011;904;47.814;11.134;2023-07-16T07:17:58;3.53;;;1.50;;
1811;SDS011;904;47.814;11.134;2023-07-16T07:20:26;2.43;;;1.30;;
1811;SDS011;904;47.814;11.134;2023-07-16T07:22:53;3.00;;;1.57;;
1811;SDS011;904;47.814;11.134;2023-07-16T07:25:20;2.50;;;1.20;;
1811;SDS011;904;47.814;11.134;2023-07-16T07:27:49;2.10;;;0.90;;
1811;SDS011;904;47.814;11.134;2023-07-16T07:30:16;3.00;;;1.23;;
1811;SDS011;904;47.814;11.134;2023-07-16T07:32:46;2.90;;;1.53;;
1811;SDS011;904;47.814;11.134;2023-07-16T07:35:13;2.60;;;1.30;;
1811;SDS011;904;47.814;11.134;2023-07-16T07:37:40;2.40;;;1.20;;
1811;SDS011;904;47.814;11.134;2023-07-16T07:40:07;2.50;;;1.17;;
1811;SDS011;904;47.814;11.134;2023-07-16T07:42:35;4.10;;;1.40;;
1811;SDS011;904;47.814;11.134;2023-07-16T07:45:02;3.57;;;1.67;;
1811;SDS011;904;47.814;11.134;2023-07-16T07:47:29;2.87;;;1.33;;
1811;SDS011;904;47.814;11.134;2023-07-16T07:49:58;2.93;;;1.20;;
1811;SDS011;904;47.814;11.134;2023-07-16T07:52:26;2.80;;;1.50;;
1811;SDS011;904;47.814;11.134;2023-07-16T07:54:53;4.00;;;1.30;;
1811;SDS011;904;47.814;11.134;2023-07-16T07:57:20;3.83;;;2.10;;
1811;SDS011;904;47.814;11.134;2023-07-16T07:59:47;4.60;;;1.70;;
1811;SDS011;904;47.814;11.134;2023-07-16T08:02:16;4.17;;;1.70;;
1811;SDS011;904;47.814;11.134;2023-07-16T08:04:49;3.20;;;1.80;;
1811;SDS011;904;47.814;11.134;2023-07-16T08:07:18;3.10;;;1.13;;
1811;SDS011;904;47.814;11.134;2023-07-16T08:09:48;2.50;;;1.30;;
1811;SDS011;904;47.814;11.134;2023-07-16T08:12:15;5.57;;;1.60;;
1811;SDS011;904;47.814;11.134;2023-07-16T08:15:08;3.03;;;1.73;;
1811;SDS011;904;47.814;11.134;2023-07-16T08:17:39;3.30;;;1.50;;
1811;SDS011;904;47.814;11.134;2023-07-16T08:20:07;2.43;;;1.33;;
1811;SDS011;904;47.814;11.134;2023-07-16T08:22:40;3.20;;;1.50;;
1811;SDS011;904;47.814;11.134;2023-07-16T08:25:08;2.80;;;1.50;;
1811;SDS011;904;47.814;11.134;2023-07-16T08:27:40;2.20;;;1.20;;
1811;SDS011;904;47.814;11.134;2023-07-16T08:30:07;3.70;;;1.60;;
1811;SDS011;904;47.814;11.134;2023-07-16T08:32:35;2.60;;;1.50;;
1811;SDS011;904;47.814;11.134;2023-07-16T08:35:02;2.50;;;1.30;;
1811;SDS011;904;47.814;11.134;2023-07-16T08:37:30;2.20;;;1.20;;
1811;SDS011;904;47.814;11.134;2023-07-16T08:40:05;2.37;;;1.10;;
1811;SDS011;904;47.814;11.134;2023-07-16T08:42:35;4.37;;;1.40;;
1811;SDS011;904;47.814;11.134;2023-07-16T08:45:03;2.63;;;1.60;;
1811;SDS011;904;47.814;11.134;2023-07-16T08:47:33;3.80;;;2.10;;
1811;SDS011;904;47.814;11.134;2023-07-16T08:50:00;3.23;;;1.20;;
1811;SDS011;904;47.814;11.134;2023-07-16T08:52:28;4.50;;;1.53;;
1811;SDS011;904;47.814;11.134;2023-07-16T08:54:55;2.60;;;1.40;;
1811;SDS011;904;47.814;11.134;2023-07-16T08:57:24;2.67;;;1.37;;
1811;SDS011;904;47.814;11.134;2023-07-16T08:59:53;3.53;;;1.60;;
1811;SDS011;904;47.814;11.134;2023-07-16T09:02:21;2.70;;;1.30;;
1811;SDS011;904;47.814;11.134;2023-07-16T09:04:49;4.30;;;1.97;;
1811;SDS011;904;47.814;11.134;2023-07-16T09:07:17;2.83;;;1.80;;
1811;SDS011;904;47.814;11.134;2023-07-16T09:09:54;3.43;;;1.50;;
1811;SDS011;904;47.814;11.134;2023-07-16T09:12:25;2.43;;;1.43;;
1811;SDS011;904;47.814;11.134;2023-07-16T09:14:52;3.37;;;2.00;;
1811;SDS011;904;47.814;11.134;2023-07-16T09:17:20;2.67;;;1.73;;
1811;SDS011;904;47.814;11.134;2023-07-16T09:19:49;3.27;;;1.10;;
1811;SDS011;904;47.814;11.134;2023-07-16T09:22:17;2.60;;;1.47;;
1811;SDS011;904;47.814;11.134;2023-07-16T09:24:44;2.47;;;1.20;;
1811;SDS011;904;47.814;11.134;2023-07-16T09:27:12;2.90;;;1.60;;
1811;SDS011;904;47.814;11.134;2023-07-16T09:29:45;2.90;;;1.83;;
1811;SDS011;904;47.814;11.134;2023-07-16T09:32:17;4.27;;;1.40;;
1811;SDS011;904;47.814;11.134;2023-07-16T09:34:44;2.30;;;1.27;;
1811;SDS011;904;47.814;11.134;2023-07-16T09:37:11;3.10;;;1.53;;
1811;SDS011;904;47.814;11.134;2023-07-16T09:39:38;3.53;;;1.67;;
1811;SDS011;904;47.814;11.134;2023-07-16T09:42:06;3.77;;;1.60;;
1811;SDS011;904;47.814;11.134;2023-07-16T09:44:33;2.50;;;1.50;;
1811;SDS011;904;47.814;11.134;2023-07-16T09:47:02;3.00;;;1.53;;
1811;SDS011;904;47.814;11.134;2023-07-16T09:49:30;2.90;;;1.30;;
1811;SDS011;904;47.814;11.134;2023-07-16T09:51:59;3.20;;;1.37;;
1811;SDS011;904;47.814;11.134;2023-07-16T09:54:33;3.23;;;;;
1811;SDS011;904;47.814;11.134;2023-07-16T09:57:02;3.93;;;1.60;;
1811;SDS011;904;47.814;11.134;2023-07-16T09:59:31;6.43;;;2.10;;
1811;SDS011;904;47.814;11.134;2023-07-16T10:02:00;4.00;;;1.60;;
1811;SDS011;904;47.814;11.134;2023-07-16T10:04:37;3.30;;;1.70;;
1811;SDS011;904;47.814;11.134;2023-07-16T10:07:05;2.53;;;1.50;;
1811;SDS011;904;47.814;11.134;2023-07-16T10:09:50;4.80;;;2.33;;
1811;SDS011;904;47.814;11.134;2023-07-16T10:12:18;2.80;;;1.33;;
1811;SDS011;904;47.814;11.134;2023-07-16T10:14:46;5.60;;;2.00;;
1811;SDS011;904;47.814;11.134;2023-07-16T10:17:16;3.90;;;1.57;;
1811;SDS011;904;47.814;11.134;2023-07-16T10:19:48;3.00;;;1.80;;
1811;SDS011;904;47.814;11.134;2023-07-16T10:22:17;4.77;;;2.03;;
1811;SDS011;904;47.814;11.134;2023-07-16T10:24:44;3.10;;;1.57;;
1811;SDS011;904;47.814;11.134;2023-07-16T10:27:28;2.93;;;1.33;;
1811;SDS011;904;47.814;11.134;2023-07-16T10:29:59;2.47;;;1.40;;
1811;SDS011;904;47.814;11.134;2023-07-16T10:32:31;3.00;;;1.40;;
1811;SDS011;904;47.814;11.134;2023-07-16T10:35:03;3.40;;;1.27;;
1811;SDS011;904;47.814;11.134;2023-07-16T10:37:31;2.60;;;1.33;;
1811;SDS011;904;47.814;11.134;2023-07-16T10:40:01;6.67;;;3.87;;
1811;SDS011;904;47.814;11.134;2023-07-16T10:42:29;13.00;;;6.43;;
1811;SDS011;904;47.814;11.134;2023-07-16T10:44:58;4.43;;;2.53;;
1811;SDS011;904;47.814;11.134;2023-07-16T10:47:30;4.30;;;2.27;;
1811;SDS011;904;47.814;11.134;2023-07-16T10:49:58;6.20;;;3.10;;
1811;SDS011;904;47.814;11.134;2023-07-16T10:52:26;11.17;;;3.00;;
1811;SDS011;904;47.814;11.134;2023-07-16T10:54:53;4.50;;;2.50;;
1811;SDS011;904;47.814;11.134;2023-07-16T10:57:20;3.00;;;1.33;;
1811;SDS011;904;47.814;11.134;2023-07-16T10:59:48;6.60;;;3.03;;
1811;SDS011;904;47.814;11.134;2023-07-16T11:02:16;4.73;;;2.43;;
1811;SDS011;904;47.814;11.134;2023-07-16T11:04:47;4.67;;;2.40;;
1811;SDS011;904;47.814;11.134;2023-07-16T11:07:14;4.90;;;3.57;;
1811;SDS011;904;47.814;11.134;2023-07-16T11:09:42;12.63;;;2.40;;
1811;SDS011;904;47.814;11.134;2023-07-16T11:12:11;3.57;;;1.93;;
1811;SDS011;904;47.814;11.134;2023-07-16T11:14:42;6.03;;;1.90;;
1811;SDS011;904;47.814;11.134;2023-07-16T11:17:13;5.70;;;2.07;;
1811;SDS011;904;47.814;11.134;2023-07-16T11:19:41;3.70;;;1.80;;
1811;SDS011;904;47.814;11.134;2023-07-16T11:22:13;3.90;;;1.63;;
1811;SDS011;904;47.814;11.134;2023-07-16T11:24:42;4.00;;;1.80;;
1811;SDS011;904;47.814;11.134;2023-07-16T11:27:13;6.10;;;1.83;;
1811;SDS011;904;47.814;11.134;2023-07-16T11:29:44;4.93;;;2.10;;
1811;SDS011;904;47.814;11.134;2023-07-16T11:32:12;6.03;;;1.93;;
1811;SDS011;904;47.814;11.134;2023-07-16T11:34:52;3.53;;;1.80;;
1811;SDS011;904;47.814;11.134;2023-07-16T11:37:20;4.23;;;1.80;;
1811;SDS011;904;47.814;11.134;2023-07-16T11:39:46;3.30;;;1.70;;
1811;SDS011;904;47.814;11.134;2023-07-16T11:42:14;2.80;;;1.70;;
1811;SDS011;904;47.814;11.134;2023-07-16T11:44:48;4.03;;;2.07;;
1811;SDS011;904;47.814;11.134;2023-07-16T11:47:15;2.87;;;1.57;;
1811;SDS011;904;47.814;11.134;2023-07-16T11:49:42;15.10;;;2.43;;
1811;SDS011;904;47.814;11.134;2023-07-16T11:52:11;4.60;;;1.80;;
1811;SDS011;904;47.814;11.134;2023-07-16T11:54:37;4.53;;;2.00;;
1811;SDS011;904;47.814;11.134;2023-07-16T11:57:05;3.60;;;2.30;;
1811;SDS011;904;47.814;11.134;2023-07-16T11:59:32;6.10;;;2.23;;
1811;SDS011;904;47.814;11.134;2023-07-16T12:02:04;4.20;;;2.00;;
1811;SDS011;904;47.814;11.134;2023-07-16T12:04:32;4.53;;;2.10;;
1811;SDS011;904;47.814;11.134;2023-07-16T12:06:59;3.10;;;1.57;;
1811;SDS011;904;47.814;11.134;2023-07-16T12:09:27;3.53;;;1.67;;
1811;SDS011;904;47.814;11.134;2023-07-16T12:11:54;3.53;;;1.60;;
1811;SDS011;904;47.814;11.134;2023-07-16T12:14:22;3.83;;;1.63;;
1811;SDS011;904;47.814;11.134;2023-07-16T12:16:49;3.00;;;1.63;;
1811;SDS011;904;47.814;11.134;2023-07-16T12:19:16;3.83;;;1.60;;
1811;SDS011;904;47.814;11.134;2023-07-16T12:21:47;4.30;;;1.83;;
1811;SDS011;904;47.814;11.134;2023-07-16T12:24:14;2.67;;;1.73;;
1811;SDS011;904;47.814;11.134;2023-07-16T12:26:43;3.87;;;1.73;;
1811;SDS011;904;47.814;11.134;2023-07-16T12:29:10;4.57;;;1.77;;
1811;SDS011;904;47.814;11.134;2023-07-16T12:31:37;3.67;;;1.90;;
1811;SDS011;904;47.814;11.134;2023-07-16T12:34:04;2.93;;;1.93;;
1811;SDS011;904;47.814;11.134;2023-07-16T12:36:31;2.10;;;1.20;;
1811;SDS011;904;47.814;11.134;2023-07-16T12:38:58;2.93;;;1.40;;
1811;SDS011;904;47.814;11.134;2023-07-16T12:41:25;3.33;;;2.10;;
1811;SDS011;904;47.814;11.134;2023-07-16T12:43:53;5.57;;;2.07;;
1811;SDS011;904;47.814;11.134;2023-07-16T12:46:20;4.73;;;1.73;;
1811;SDS011;904;47.814;11.134;2023-07-16T12:48:47;8.60;;;1.80;;
1811;SDS011;904;47.814;11.134;2023-07-16T12:51:14;8.00;;;2.53;;
1811;SDS011;904;47.814;11.134;2023-07-16T12:53:41;3.90;;;1.93;;
1811;SDS011;904;47.814;11.134;2023-07-16T12:56:09;5.07;;;2.00;;
1811;SDS011;904;47.814;11.134;2023-07-16T12:58:37;3.77;;;1.93;;
1811;SDS011;904;47.814;11.134;2023-07-16T13:01:05;4.80;;;1.60;;
1811;SDS011;904;47.814;11.134;2023-07-16T13:03:33;3.00;;;2.00;;
1811;SDS011;904;47.814;11.134;2023-07-16T13:06:00;4.00;;;2.20;;
1811;SDS011;904;47.814;11.134;2023-07-16T13:08:28;4.27;;;1.80;;
1811;SDS011;904;47.814;11.134;2023-07-16T13:10:55;3.73;;;2.13;;
1811;SDS011;904;47.814;11.134;2023-07-16T13:13:23;3.90;;;1.97;;
1811;SDS011;904;47.814;11.134;2023-07-16T13:15:50;3.80;;;1.93;;
1811;SDS011;904;47.814;11.134;2023-07-16T13:18:18;4.87;;;2.60;;
1811;SDS011;904;47.814;11.134;2023-07-16T13:20:45;4.10;;;1.70;;
1811;SDS011;904;47.814;11.134;2023-07-16T13:23:12;4.67;;;1.97;;
1811;SDS011;904;47.814;11.134;2023-07-16T13:25:39;2.90;;;1.83;;
1811;SDS011;904;47.814;11.134;2023-07-16T13:28:05;3.50;;;2.30;;
1811;SDS011;904;47.814;11.134;2023-07-16T13:30:33;3.50;;;2.03;;
1811;SDS011;904;47.814;11.134;2023-07-16T13:33:00;4.23;;;2.63;;
1811;SDS011;904;47.814;11.134;2023-07-16T13:35:28;4.23;;;2.20;;
1811;SDS011;904;47.814;11.134;2023-07-16T13:37:55;3.47;;;2.27;;
1811;SDS011;904;47.814;11.134;2023-07-16T13:40:22;3.17;;;1.83;;
1811;SDS011;904;47.814;11.134;2023-07-16T13:42:49;2.67;;;1.70;;
1811;SDS011;904;47.814;11.134;2023-07-16T13:45:16;3.27;;;2.47;;
1811;SDS011;904;47.814;11.134;2023-07-16T13:47:43;3.20;;;2.13;;
1811;SDS011;904;47.814;11.134;2023-07-16T13:50:09;2.40;;;1.43;;
1811;SDS011;904;47.814;11.134;2023-07-16T13:52:38;3.77;;;2.13;;
1811;SDS011;904;47.814;11.134;2023-07-16T13:55:05;2.40;;;1.50;;
1811;SDS011;904;47.814;11.134;2023-07-16T13:57:32;3.87;;;1.90;;
1811;SDS011;904;47.814;11.134;2023-07-16T13:59:59;2.93;;;2.00;;
1811;SDS011;904;47.814;11.134;2023-07-16T14:02:26;2.60;;;1.40;;
1811;SDS011;904;47.814;11.134;2023-07-16T14:04:54;3.80;;;2.00;;
1811;SDS011;904;47.814;11.134;2023-07-16T14:07:21;3.33;;;2.13;;
1811;SDS011;904;47.814;11.134;2023-07-16T14:09:50;3.20;;;2.20;;
1811;SDS011;904;47.814;11.134;2023-07-16T14:12:17;3.07;;;1.67;;
1811;SDS011;904;47.814;11.134;2023-07-16T14:14:44;2.80;;;1.67;;
1811;SDS011;904;47.814;11.134;2023-07-16T14:17:11;3.20;;;2.47;;
1811;SDS011;904;47.814;11.134;2023-07-16T14:19:38;2.80;;;2.13;;
1811;SDS011;904;47.814;11.134;2023-07-16T14:22:05;2.50;;;1.80;;
1811;SDS011;904;47.814;11.134;2023-07-16T14:24:32;3.20;;;2.33;;
1811;SDS011;904;47.814;11.134;2023-07-16T14:27:00;3.20;;;1.80;;
1811;SDS011;904;47.814;11.134;2023-07-16T14:29:27;3.23;;;1.90;;
1811;SDS011;904;47.814;11.134;2023-07-16T14:31:54;3.60;;;2.43;;
1811;SDS011;904;47.814;11.134;2023-07-16T14:34:21;4.67;;;2.10;;
1811;SDS011;904;47.814;11.134;2023-07-16T14:36:48;3.80;;;2.80;;
1811;SDS011;904;47.814;11.134;2023-07-16T14:39:15;4.43;;;2.90;;
1811;SDS011;904;47.814;11.134;2023-07-16T14:41:42;3.47;;;2.63;;
1811;SDS011;904;47.814;11.134;2023-07-16T14:44:11;6.17;;;2.40;;
1811;SDS011;904;47.814;11.134;2023-07-16T14:46:37;3.90;;;2.40;;
1811;SDS011;904;47.814;11.134;2023-07-16T14:49:04;3.23;;;2.20;;
1811;SDS011;904;47.814;11.134;2023-07-16T14:51:31;3.53;;;2.03;;
1811;SDS011;904;47.814;11.134;2023-07-16T14:54:04;3.80;;;2.00;;
1811;SDS011;904;47.814;11.134;2023-07-16T14:56:32;3.40;;;2.10;;
1811;SDS011;904;47.814;11.134;2023-07-16T14:58:58;3.10;;;2.17;;
1811;SDS011;904;47.814;11.134;2023-07-16T15:01:28;4.20;;;2.60;;
1811;SDS011;904;47.814;11.134;2023-07-16T15:03:55;6.53;;;3.00;;
1811;SDS011;904;47.814;11.134;2023-07-16T15:06:22;5.00;;;2.13;;
1811;SDS011;904;47.814;11.134;2023-07-16T15:08:49;5.27;;;1.83;;
1811;SDS011;904;47.814;11.134;2023-07-16T15:11:17;3.40;;;1.80;;
1811;SDS011;904;47.814;11.134;2023-07-16T15:13:44;3.17;;;1.70;;
1811;SDS011;904;47.814;11.134;2023-07-16T15:16:11;2.53;;;1.50;;
1811;SDS011;904;47.814;11.134;2023-07-16T15:18:40;4.13;;;2.17;;
1811;SDS011;904;47.814;11.134;2023-07-16T15:21:08;3.03;;;2.10;;